Airfield :
LOGIN :

Register | Disclaimer

   EN    FR    IT 

 










Legend :    VFR   Marginal VFR   IFR   Intensive IFR   Very Intensive IFR
Visi :
Ceiling :
>= 8 km
>= 3000ft
5 to 8 km
1000 to 3000 ft
1500m to 5 km
500 to 1000 ft
800 to 1500m
200 to 500 ft
< 800m
< 200 ft
Symbols :   Thunderstorms  Fog  Heavy snow  Heavy precipitations  Wind > 20 kt
SIGMETs :     Misc.  Thunderstorms  Icing  Turbulence  Mountain Waves  Volcanic Ashes







- Airport Elevation : 588 ft
- IATA code : DME


UUDD - Domodedovo International

CURRENT METAR :
  • 161230Z 33005MPS 290V360 9999 SCT036 22/11 Q1015 R88/CLRD70 NOSIG

EXPIRED METARs :
  • 161200Z 36006MPS 300V040 9999 SCT031 22/12 Q1015 R88/CLRD70 NOSIG
  • 161130Z 02006MPS 9999 SCT028 21/12 Q1015 R88/70D NOSIG
  • 161100Z 34006MPS 310V020 9999 SCT031 22/11 Q1015 R88/CLRD70 NOSIG
  • 161030Z 36006MPS 330V040 9999 SCT033 22/11 Q1014 R88/CLRD70 NOSIG
  • 161000Z 36005G10MPS 320V030 9999 SCT033 21/10 Q1014 R88/70D NOSIG
  • 160930Z 34006MPS 310V010 9999 SCT036 22/12 Q1014 R88/CLRD70 NOSIG

TAF TAF UUDD
Valid from the 16 at 12:00 until the 17 at 18:00 UTC


161055Z 1612/1718 35006MPS 9999 SCT020 TX25/1712Z TN12/1701Z
BECMG 1616/1618 VRB01MPS 5000 BR
PROB40
TEMPO 1619/1704 0300 FG FEW002
BECMG 1705/1707 29005MPS 9999 NSW
No reported NOTAMs for that airfield.
1 SIGMET reported for the Moscow FIR (UUWV) :
 
Embedded thunderstorms and hail
UUWV SIGMET 5 VALID 161030/161300 UUWV
UUWV MOSCOW FIR EMBD TSGR OBS S OF LINE N5440 E04400 - N5600 E03700 - N5220 E03300 TOP FL390 MOV SE 20KMH INTSF=



MET'MAP, your aeronautical weather chart ! - Copyright ORBIFLY December 2007 - Disclaimer

ORBIFLY MET'MAP TEAM :

Programming & Development : Alexandra Zaïnal
Concept & Development : Baudouin d'Aumeries
Co-Development & Prog : Marc-Olivier Méhu
Technical & hardware support : Manuel Goepfert

Contact : metmap@orbifly.com




SOURCES & CREDITS :

   NOAA